Prairie Du Sac, Wisconsin
Current Conditions -  °F | °C
As of 4:15 AM on Sunday 26 Oct 2014 (Local Time) from KC29 Reporting Station
Clear Clear  
Wind Chill:   Ceiling: Unl
Heat Index:   Visibility: 10mi
Dew Point: -1°   Wind: 3mph
Humidity: 72%   Direction: 290°WNW
Pressure: 30.02"   Gusts: NA
Location:  43.29°N, 89.72°W
Report Text: KC29 260915Z AUTO 29003KT 10SM CLR 03/M01 A3002 RMK AO1 T00331013
Loading
Personal Weather Stations






























Interactive Weather Map
Tropical Storm Tracking
New forecast layout! Learn more

10-Day Weather Forecast

Advertisements
Track Severe Weather on mobile